Time;durP1;ratioP1;P1;durP2;ratioP2;P2;SDS_P1;SDS_P2;PMS_P1;PMS_P2;Temp;Humidity;BMP_temperature;BMP_pressure;BME280_temperature;BME280_humidity;BME280_pressure;Samples;Min_cycle;Max_cycle;Signal;HPM_P1;HPM_P2
2022/10/01 07:55:21;;;;;;;1.77;1.27;;;21.60;48.80;;;;;;5009360;27;20559;-56
2022/10/01 07:57:47;;;;;;;3.92;1.60;;;22.10;49.10;;;;;;5037907;28;20494;-54
2022/10/01 08:00:14;;;;;;;1.52;1.40;;;22.10;49.20;;;;;;5041124;28;20210;-51
2022/10/01 08:02:40;;;;;;;1.52;1.42;;;22.20;49.40;;;;;;5045063;28;20669;-49
2022/10/01 08:05:20;;;;;;;4.65;1.90;;;22.10;49.20;;;;;;5044584;28;20681;-53
2022/10/01 08:07:47;;;;;;;2.58;2.17;;;22.10;50.00;;;;;;5044987;28;20209;-58
2022/10/01 08:10:13;;;;;;;11.43;3.47;;;22.10;50.00;;;;;;5044477;28;20288;-59
2022/10/01 08:12:41;;;;;;;4.65;2.00;;;22.10;50.60;;;;;;5043430;28;20237;-58
2022/10/01 08:15:09;;;;;;;3.83;1.98;;;22.10;50.70;;;;;;5046942;28;20233;-57
2022/10/01 08:17:36;;;;;;;9.05;2.17;;;22.10;50.60;;;;;;5047701;28;20198;-58
2022/10/01 08:20:03;;;;;;;7.60;2.15;;;22.10;51.20;;;;;;5039873;28;20202;-62
2022/10/01 08:22:29;;;;;;;3.40;2.47;;;22.10;50.90;;;;;;5033932;28;20253;-62
2022/10/01 08:24:55;;;;;;;4.93;2.40;;;22.00;49.60;;;;;;5042062;28;20202;-62
2022/10/01 08:27:22;;;;;;;5.00;2.13;;;22.00;49.00;;;;;;5018494;28;20206;-62
2022/10/01 08:29:48;;;;;;;3.72;2.10;;;22.00;47.90;;;;;;5025274;28;20202;-63
2022/10/01 08:32:15;;;;;;;4.38;2.10;;;22.00;47.30;;;;;;5037791;28;20297;-66
2022/10/01 08:34:41;;;;;;;6.63;2.47;;;22.00;45.90;;;;;;5043610;28;20234;-64
2022/10/01 08:37:08;;;;;;;4.60;2.15;;;22.00;45.90;;;;;;5047128;28;20224;-63
2022/10/01 08:39:35;;;;;;;4.00;2.58;;;22.00;45.70;;;;;;5042702;28;20210;-63
2022/10/01 08:42:02;;;;;;;2.88;2.00;;;22.00;44.90;;;;;;5046071;28;20197;-64
2022/10/01 08:44:28;;;;;;;2.78;1.95;;;21.90;44.50;;;;;;5043179;28;20198;-63
2022/10/01 08:46:55;;;;;;;2.40;2.00;;;21.90;44.10;;;;;;5041790;28;20205;-61
2022/10/01 08:49:21;;;;;;;3.65;2.35;;;21.90;44.10;;;;;;5043853;28;20234;-62
2022/10/01 08:51:47;;;;;;;3.35;2.40;;;21.90;44.00;;;;;;5042568;28;20209;-62
2022/10/01 08:54:14;;;;;;;3.63;2.70;;;21.90;46.20;;;;;;5041243;28;20237;-64
2022/10/01 08:56:43;;;;;;;4.30;2.10;;;21.90;47.30;;;;;;5036624;28;20202;-52
2022/10/01 08:59:09;;;;;;;2.70;2.10;;;21.90;48.40;;;;;;5024085;28;20206;-58
2022/10/01 09:01:35;;;;;;;6.13;2.17;;;22.00;47.70;;;;;;5033169;28;20205;-58
2022/10/01 09:04:02;;;;;;;5.57;2.40;;;22.00;48.40;;;;;;5046692;28;20254;-59
2022/10/01 09:06:28;;;;;;;3.63;2.20;;;22.00;48.70;;;;;;5033721;28;20313;-57
2022/10/01 09:08:55;;;;;;;4.65;2.28;;;22.00;49.20;;;;;;5032522;28;20202;-58
2022/10/01 09:11:22;;;;;;;5.10;2.70;;;22.00;49.50;;;;;;5033145;28;20198;-58
2022/10/01 09:13:50;;;;;;;4.47;2.13;;;22.00;49.60;;;;;;5033226;28;20726;-58
2022/10/01 09:16:16;;;;;;;3.60;2.20;;;21.90;49.60;;;;;;5034287;28;20203;-59
2022/10/01 09:18:43;;;;;;;2.70;2.20;;;21.90;49.40;;;;;;5034343;28;20198;-59
2022/10/01 09:21:10;;;;;;;3.30;2.40;;;21.90;49.90;;;;;;5026391;28;20234;-58
2022/10/01 09:23:37;;;;;;;2.70;2.00;;;21.90;50.00;;;;;;5030935;28;20230;-59
2022/10/01 09:26:03;;;;;;;3.85;2.33;;;21.90;50.00;;;;;;5032225;28;20655;-58
2022/10/01 09:28:30;;;;;;;4.22;2.60;;;21.90;50.10;;;;;;5021657;28;20667;-59
2022/10/01 09:30:56;;;;;;;2.75;2.05;;;21.90;50.00;;;;;;5033891;28;20231;-59
2022/10/01 09:33:23;;;;;;;3.03;2.47;;;21.90;50.20;;;;;;5033598;28;20227;-60
2022/10/01 09:35:50;;;;;;;3.38;1.90;;;21.90;50.30;;;;;;5034122;28;20210;-59
2022/10/01 09:38:16;;;;;;;3.65;2.60;;;21.90;50.40;;;;;;5032073;28;20217;-60
2022/10/01 09:40:43;;;;;;;3.33;2.10;;;21.90;50.50;;;;;;5033998;28;20210;-60
2022/10/01 09:43:09;;;;;;;2.85;2.20;;;21.90;50.40;;;;;;5032557;28;20268;-59
2022/10/01 09:45:36;;;;;;;3.45;2.30;;;21.90;50.30;;;;;;5022543;28;20214;-59
2022/10/01 09:48:03;;;;;;;4.25;2.00;;;21.90;50.50;;;;;;5032545;28;20206;-58
2022/10/01 09:50:29;;;;;;;2.95;2.17;;;21.90;50.50;;;;;;5032700;28;20206;-60
2022/10/01 09:52:56;;;;;;;4.50;2.30;;;21.90;50.50;;;;;;5031777;28;20227;-58
2022/10/01 09:55:22;;;;;;;4.13;2.20;;;21.90;50.50;;;;;;5031441;28;20245;-59
2022/10/01 09:57:49;;;;;;;3.72;2.35;;;21.90;50.50;;;;;;5032187;28;20662;-59
2022/10/01 10:00:16;;;;;;;4.40;2.40;;;21.90;50.50;;;;;;5024289;28;20207;-58
2022/10/01 10:02:43;;;;;;;3.00;2.35;;;21.90;50.50;;;;;;5003155;28;20226;-56
2022/10/01 10:05:09;;;;;;;3.42;2.30;;;22.00;50.60;;;;;;5012029;28;20198;-49
2022/10/01 10:07:37;;;;;;;2.97;2.05;;;22.00;51.50;;;;;;5024935;28;20669;-49
2022/10/01 10:10:03;;;;;;;4.03;2.17;;;22.10;51.70;;;;;;5013453;28;20210;-52
2022/10/01 10:13:23;;;;;;;5.97;2.40;;;22.20;51.50;;;;;;5047965;27;21075;-53
2022/10/01 10:15:49;;;;;;;3.67;2.00;;;22.20;50.80;;;;;;5039985;28;20641;-51
2022/10/01 10:18:16;;;;;;;2.75;2.10;;;22.20;51.60;;;;;;5022769;28;20209;-49
2022/10/01 10:20:42;;;;;;;3.53;1.90;;;22.30;51.00;;;;;;5021870;28;20202;-52
2022/10/01 10:23:09;;;;;;;4.93;2.30;;;22.40;51.30;;;;;;5031013;28;20229;-53
2022/10/01 10:25:35;;;;;;;3.15;2.10;;;22.40;50.90;;;;;;5028667;28;20237;-60
2022/10/01 10:28:02;;;;;;;5.32;2.00;;;22.50;51.00;;;;;;5026306;28;20786;-45
2022/10/01 10:30:28;;;;;;;3.63;2.10;;;22.60;50.40;;;;;;5023577;28;20214;-53
2022/10/01 10:32:55;;;;;;;2.85;2.03;;;22.60;49.70;;;;;;5020448;28;20736;-51
2022/10/01 10:35:21;;;;;;;3.13;1.90;;;22.50;60.70;;;;;;5020155;28;20215;-49
